sensor_id;sensor_type;location;lat;lon;timestamp;P1;durP1;ratioP1;P2;durP2;ratioP2
6386;SDS011;3226;42.162;24.756;2022-07-29T00:01:41;8.70;;;8.13;;
6386;SDS011;3226;42.162;24.756;2022-07-29T00:04:10;9.63;;;8.80;;
6386;SDS011;3226;42.162;24.756;2022-07-29T00:06:39;8.77;;;8.07;;
6386;SDS011;3226;42.162;24.756;2022-07-29T00:09:10;9.63;;;8.93;;
6386;SDS011;3226;42.162;24.756;2022-07-29T00:11:38;8.20;;;7.70;;
6386;SDS011;3226;42.162;24.756;2022-07-29T00:14:07;9.37;;;8.57;;
6386;SDS011;3226;42.162;24.756;2022-07-29T00:16:35;10.77;;;9.97;;
6386;SDS011;3226;42.162;24.756;2022-07-29T00:19:05;9.87;;;9.27;;
6386;SDS011;3226;42.162;24.756;2022-07-29T00:21:33;9.60;;;9.00;;
6386;SDS011;3226;42.162;24.756;2022-07-29T00:24:01;8.73;;;8.13;;
6386;SDS011;3226;42.162;24.756;2022-07-29T00:26:29;9.50;;;8.83;;
6386;SDS011;3226;42.162;24.756;2022-07-29T00:28:58;12.40;;;9.03;;
6386;SDS011;3226;42.162;24.756;2022-07-29T00:31:47;8.93;;;7.80;;
6386;SDS011;3226;42.162;24.756;2022-07-29T00:34:16;9.13;;;7.77;;
6386;SDS011;3226;42.162;24.756;2022-07-29T00:36:58;11.00;;;9.03;;
6386;SDS011;3226;42.162;24.756;2022-07-29T00:39:26;9.67;;;8.97;;
6386;SDS011;3226;42.162;24.756;2022-07-29T00:41:54;9.27;;;8.77;;
6386;SDS011;3226;42.162;24.756;2022-07-29T00:44:22;10.20;;;9.40;;
6386;SDS011;3226;42.162;24.756;2022-07-29T00:46:50;10.03;;;9.33;;
6386;SDS011;3226;42.162;24.756;2022-07-29T00:49:20;9.40;;;8.80;;
6386;SDS011;3226;42.162;24.756;2022-07-29T00:51:48;12.53;;;8.77;;
6386;SDS011;3226;42.162;24.756;2022-07-29T00:54:17;10.23;;;8.93;;
6386;SDS011;3226;42.162;24.756;2022-07-29T00:56:45;9.63;;;8.73;;
6386;SDS011;3226;42.162;24.756;2022-07-29T00:59:13;9.53;;;8.63;;
6386;SDS011;3226;42.162;24.756;2022-07-29T01:01:42;8.80;;;8.20;;
6386;SDS011;3226;42.162;24.756;2022-07-29T01:04:10;10.17;;;9.37;;
6386;SDS011;3226;42.162;24.756;2022-07-29T01:06:41;12.40;;;8.77;;
6386;SDS011;3226;42.162;24.756;2022-07-29T01:09:10;9.17;;;8.43;;
6386;SDS011;3226;42.162;24.756;2022-07-29T01:11:40;11.10;;;9.07;;
6386;SDS011;3226;42.162;24.756;2022-07-29T01:14:09;11.37;;;10.37;;
6386;SDS011;3226;42.162;24.756;2022-07-29T01:16:40;10.30;;;9.40;;
6386;SDS011;3226;42.162;24.756;2022-07-29T01:19:19;11.60;;;10.60;;
6386;SDS011;3226;42.162;24.756;2022-07-29T01:22:07;10.50;;;9.70;;
6386;SDS011;3226;42.162;24.756;2022-07-29T01:24:52;10.63;;;9.73;;
6386;SDS011;3226;42.162;24.756;2022-07-29T01:27:38;10.27;;;9.57;;
6386;SDS011;3226;42.162;24.756;2022-07-29T01:30:14;11.20;;;10.30;;
6386;SDS011;3226;42.162;24.756;2022-07-29T01:32:42;10.97;;;10.07;;
6386;SDS011;3226;42.162;24.756;2022-07-29T01:35:15;10.73;;;9.93;;
6386;SDS011;3226;42.162;24.756;2022-07-29T01:37:48;11.43;;;10.47;;
6386;SDS011;3226;42.162;24.756;2022-07-29T01:40:24;11.40;;;10.30;;
6386;SDS011;3226;42.162;24.756;2022-07-29T01:42:57;11.57;;;10.33;;
6386;SDS011;3226;42.162;24.756;2022-07-29T01:45:30;10.63;;;9.70;;
6386;SDS011;3226;42.162;24.756;2022-07-29T01:48:08;11.07;;;10.17;;
6386;SDS011;3226;42.162;24.756;2022-07-29T01:50:42;13.90;;;12.80;;
6386;SDS011;3226;42.162;24.756;2022-07-29T01:53:14;14.90;;;13.60;;
6386;SDS011;3226;42.162;24.756;2022-07-29T01:56:00;19.50;;;17.97;;
6386;SDS011;3226;42.162;24.756;2022-07-29T01:58:31;13.82;;;12.73;;
6386;SDS011;3226;42.162;24.756;2022-07-29T02:01:01;17.03;;;15.73;;
6386;SDS011;3226;42.162;24.756;2022-07-29T02:03:31;13.00;;;11.80;;
6386;SDS011;3226;42.162;24.756;2022-07-29T02:06:02;12.23;;;10.90;;
6386;SDS011;3226;42.162;24.756;2022-07-29T02:08:32;12.97;;;11.97;;
6386;SDS011;3226;42.162;24.756;2022-07-29T02:11:01;10.43;;;9.40;;
6386;SDS011;3226;42.162;24.756;2022-07-29T02:13:32;10.70;;;9.70;;
6386;SDS011;3226;42.162;24.756;2022-07-29T02:16:05;11.50;;;10.27;;
6386;SDS011;3226;42.162;24.756;2022-07-29T02:18:34;11.10;;;10.30;;
6386;SDS011;3226;42.162;24.756;2022-07-29T02:21:05;13.17;;;12.17;;
6386;SDS011;3226;42.162;24.756;2022-07-29T02:23:41;12.87;;;11.87;;
6386;SDS011;3226;42.162;24.756;2022-07-29T02:26:17;14.70;;;11.50;;
6386;SDS011;3226;42.162;24.756;2022-07-29T02:28:47;13.90;;;12.63;;
6386;SDS011;3226;42.162;24.756;2022-07-29T02:31:18;12.13;;;10.73;;
6386;SDS011;3226;42.162;24.756;2022-07-29T02:33:52;14.00;;;10.17;;
6386;SDS011;3226;42.162;24.756;2022-07-29T02:36:21;11.67;;;10.70;;
6386;SDS011;3226;42.162;24.756;2022-07-29T02:38:51;12.23;;;10.03;;
6386;SDS011;3226;42.162;24.756;2022-07-29T02:41:24;11.87;;;10.27;;
6386;SDS011;3226;42.162;24.756;2022-07-29T02:43:56;14.67;;;13.47;;
6386;SDS011;3226;42.162;24.756;2022-07-29T02:46:30;15.90;;;14.57;;
6386;SDS011;3226;42.162;24.756;2022-07-29T02:49:02;14.53;;;12.93;;
6386;SDS011;3226;42.162;24.756;2022-07-29T02:51:41;12.77;;;11.63;;
6386;SDS011;3226;42.162;24.756;2022-07-29T02:54:16;14.57;;;11.20;;
6386;SDS011;3226;42.162;24.756;2022-07-29T02:56:50;11.57;;;10.47;;
6386;SDS011;3226;42.162;24.756;2022-07-29T02:59:23;15.33;;;10.80;;
6386;SDS011;3226;42.162;24.756;2022-07-29T03:01:56;47.03;;;12.50;;
6386;SDS011;3226;42.162;24.756;2022-07-29T03:04:26;22.93;;;12.03;;
6386;SDS011;3226;42.162;24.756;2022-07-29T03:06:56;14.87;;;11.87;;
6386;SDS011;3226;42.162;24.756;2022-07-29T03:09:26;28.33;;;14.20;;
6386;SDS011;3226;42.162;24.756;2022-07-29T03:11:55;25.10;;;15.87;;
6386;SDS011;3226;42.162;24.756;2022-07-29T03:14:24;17.50;;;12.90;;
6386;SDS011;3226;42.162;24.756;2022-07-29T03:16:53;36.43;;;13.90;;
6386;SDS011;3226;42.162;24.756;2022-07-29T03:19:23;13.63;;;12.37;;
6386;SDS011;3226;42.162;24.756;2022-07-29T03:21:51;27.40;;;14.03;;
6386;SDS011;3226;42.162;24.756;2022-07-29T03:24:26;23.17;;;13.80;;
6386;SDS011;3226;42.162;24.756;2022-07-29T03:26:56;15.60;;;12.57;;
6386;SDS011;3226;42.162;24.756;2022-07-29T03:29:24;16.93;;;13.90;;
6386;SDS011;3226;42.162;24.756;2022-07-29T03:31:59;16.97;;;14.93;;
6386;SDS011;3226;42.162;24.756;2022-07-29T03:34:34;13.53;;;12.03;;
6386;SDS011;3226;42.162;24.756;2022-07-29T03:37:03;14.95;;;10.98;;
6386;SDS011;3226;42.162;24.756;2022-07-29T03:39:35;14.37;;;10.83;;
6386;SDS011;3226;42.162;24.756;2022-07-29T03:42:07;17.70;;;11.47;;
6386;SDS011;3226;42.162;24.756;2022-07-29T03:44:38;12.67;;;11.07;;
6386;SDS011;3226;42.162;24.756;2022-07-29T03:47:08;13.20;;;10.80;;
6386;SDS011;3226;42.162;24.756;2022-07-29T03:49:39;12.53;;;11.23;;
6386;SDS011;3226;42.162;24.756;2022-07-29T03:52:08;12.27;;;11.03;;
6386;SDS011;3226;42.162;24.756;2022-07-29T03:54:36;18.23;;;10.83;;
6386;SDS011;3226;42.162;24.756;2022-07-29T03:57:05;13.83;;;12.43;;
6386;SDS011;3226;42.162;24.756;2022-07-29T03:59:34;19.87;;;11.53;;
6386;SDS011;3226;42.162;24.756;2022-07-29T04:02:04;14.17;;;12.10;;
6386;SDS011;3226;42.162;24.756;2022-07-29T04:04:36;14.40;;;12.97;;
6386;SDS011;3226;42.162;24.756;2022-07-29T04:07:05;13.07;;;11.87;;
6386;SDS011;3226;42.162;24.756;2022-07-29T04:09:33;15.80;;;11.67;;
6386;SDS011;3226;42.162;24.756;2022-07-29T04:12:02;11.70;;;10.50;;
6386;SDS011;3226;42.162;24.756;2022-07-29T04:14:30;13.40;;;11.13;;
6386;SDS011;3226;42.162;24.756;2022-07-29T04:16:59;14.70;;;13.23;;
6386;SDS011;3226;42.162;24.756;2022-07-29T04:19:28;14.27;;;11.23;;
6386;SDS011;3226;42.162;24.756;2022-07-29T04:21:56;13.70;;;12.10;;
6386;SDS011;3226;42.162;24.756;2022-07-29T04:24:25;12.80;;;11.43;;
6386;SDS011;3226;42.162;24.756;2022-07-29T04:26:54;14.37;;;12.97;;
6386;SDS011;3226;42.162;24.756;2022-07-29T04:29:22;14.47;;;13.03;;
6386;SDS011;3226;42.162;24.756;2022-07-29T04:31:50;12.73;;;11.47;;
6386;SDS011;3226;42.162;24.756;2022-07-29T04:34:18;14.20;;;12.37;;
6386;SDS011;3226;42.162;24.756;2022-07-29T04:36:46;14.13;;;12.90;;
6386;SDS011;3226;42.162;24.756;2022-07-29T04:39:14;14.03;;;12.63;;
6386;SDS011;3226;42.162;24.756;2022-07-29T04:41:49;13.30;;;11.13;;
6386;SDS011;3226;42.162;24.756;2022-07-29T04:44:21;12.70;;;11.40;;
6386;SDS011;3226;42.162;24.756;2022-07-29T04:46:54;13.13;;;11.87;;
6386;SDS011;3226;42.162;24.756;2022-07-29T04:49:22;14.40;;;12.27;;
6386;SDS011;3226;42.162;24.756;2022-07-29T04:51:50;13.50;;;12.10;;
6386;SDS011;3226;42.162;24.756;2022-07-29T04:54:18;16.10;;;14.47;;
6386;SDS011;3226;42.162;24.756;2022-07-29T04:56:46;24.07;;;19.37;;
6386;SDS011;3226;42.162;24.756;2022-07-29T04:59:16;21.63;;;16.63;;
6386;SDS011;3226;42.162;24.756;2022-07-29T05:01:44;22.30;;;13.40;;
6386;SDS011;3226;42.162;24.756;2022-07-29T05:04:12;14.43;;;13.20;;
6386;SDS011;3226;42.162;24.756;2022-07-29T05:06:41;15.17;;;11.47;;
6386;SDS011;3226;42.162;24.756;2022-07-29T05:09:09;14.10;;;12.57;;
6386;SDS011;3226;42.162;24.756;2022-07-29T05:11:37;22.47;;;17.47;;
6386;SDS011;3226;42.162;24.756;2022-07-29T05:14:05;16.77;;;13.10;;
6386;SDS011;3226;42.162;24.756;2022-07-29T05:16:34;28.77;;;17.70;;
6386;SDS011;3226;42.162;24.756;2022-07-29T05:19:02;27.73;;;22.50;;
6386;SDS011;3226;42.162;24.756;2022-07-29T05:21:30;25.27;;;18.03;;
6386;SDS011;3226;42.162;24.756;2022-07-29T05:23:58;23.97;;;17.43;;
6386;SDS011;3226;42.162;24.756;2022-07-29T05:26:26;26.67;;;17.17;;
6386;SDS011;3226;42.162;24.756;2022-07-29T05:28:54;16.63;;;15.13;;
6386;SDS011;3226;42.162;24.756;2022-07-29T05:31:23;14.93;;;13.53;;
6386;SDS011;3226;42.162;24.756;2022-07-29T05:33:52;13.27;;;12.03;;
6386;SDS011;3226;42.162;24.756;2022-07-29T05:36:20;12.27;;;11.00;;
6386;SDS011;3226;42.162;24.756;2022-07-29T05:38:48;14.10;;;11.43;;
6386;SDS011;3226;42.162;24.756;2022-07-29T05:41:18;16.43;;;11.30;;
6386;SDS011;3226;42.162;24.756;2022-07-29T05:43:46;15.80;;;12.37;;
6386;SDS011;3226;42.162;24.756;2022-07-29T05:46:14;13.97;;;12.57;;
6386;SDS011;3226;42.162;24.756;2022-07-29T05:48:42;12.60;;;11.40;;
6386;SDS011;3226;42.162;24.756;2022-07-29T05:51:12;18.00;;;13.57;;
6386;SDS011;3226;42.162;24.756;2022-07-29T05:53:40;16.17;;;12.97;;
6386;SDS011;3226;42.162;24.756;2022-07-29T05:56:08;14.43;;;13.03;;
6386;SDS011;3226;42.162;24.756;2022-07-29T05:58:36;14.40;;;12.23;;
6386;SDS011;3226;42.162;24.756;2022-07-29T06:01:04;12.87;;;11.77;;
6386;SDS011;3226;42.162;24.756;2022-07-29T06:03:32;14.47;;;13.07;;
6386;SDS011;3226;42.162;24.756;2022-07-29T06:06:00;15.83;;;13.83;;
6386;SDS011;3226;42.162;24.756;2022-07-29T06:08:30;19.47;;;16.50;;
6386;SDS011;3226;42.162;24.756;2022-07-29T06:11:00;16.70;;;15.03;;
6386;SDS011;3226;42.162;24.756;2022-07-29T06:13:28;20.27;;;17.93;;
6386;SDS011;3226;42.162;24.756;2022-07-29T06:15:56;13.60;;;12.13;;
6386;SDS011;3226;42.162;24.756;2022-07-29T06:18:24;12.93;;;11.83;;
6386;SDS011;3226;42.162;24.756;2022-07-29T06:20:53;14.00;;;12.50;;
6386;SDS011;3226;42.162;24.756;2022-07-29T06:23:21;15.77;;;14.30;;
6386;SDS011;3226;42.162;24.756;2022-07-29T06:25:50;15.97;;;14.73;;
6386;SDS011;3226;42.162;24.756;2022-07-29T06:28:18;15.07;;;13.77;;
6386;SDS011;3226;42.162;24.756;2022-07-29T06:30:46;17.07;;;15.27;;
6386;SDS011;3226;42.162;24.756;2022-07-29T06:33:17;14.83;;;13.40;;
6386;SDS011;3226;42.162;24.756;2022-07-29T06:35:46;14.30;;;13.00;;
6386;SDS011;3226;42.162;24.756;2022-07-29T06:38:19;17.00;;;15.43;;
6386;SDS011;3226;42.162;24.756;2022-07-29T06:41:00;14.50;;;13.00;;
6386;SDS011;3226;42.162;24.756;2022-07-29T06:43:30;16.40;;;15.00;;
6386;SDS011;3226;42.162;24.756;2022-07-29T06:46:00;16.60;;;14.93;;
6386;SDS011;3226;42.162;24.756;2022-07-29T06:48:29;14.37;;;12.83;;
6386;SDS011;3226;42.162;24.756;2022-07-29T06:50:58;13.83;;;12.63;;
6386;SDS011;3226;42.162;24.756;2022-07-29T06:53:26;14.77;;;13.57;;
6386;SDS011;3226;42.162;24.756;2022-07-29T06:55:55;16.10;;;14.67;;
6386;SDS011;3226;42.162;24.756;2022-07-29T06:58:25;15.13;;;13.77;;
6386;SDS011;3226;42.162;24.756;2022-07-29T07:00:54;15.53;;;14.00;;
6386;SDS011;3226;42.162;24.756;2022-07-29T07:03:23;16.60;;;15.00;;
6386;SDS011;3226;42.162;24.756;2022-07-29T07:05:51;13.87;;;12.40;;
6386;SDS011;3226;42.162;24.756;2022-07-29T07:08:20;15.10;;;13.73;;
6386;SDS011;3226;42.162;24.756;2022-07-29T07:10:49;16.53;;;13.60;;
6386;SDS011;3226;42.162;24.756;2022-07-29T07:13:17;15.70;;;14.43;;
6386;SDS011;3226;42.162;24.756;2022-07-29T07:15:47;14.57;;;13.17;;
6386;SDS011;3226;42.162;24.756;2022-07-29T07:18:17;13.83;;;12.57;;
6386;SDS011;3226;42.162;24.756;2022-07-29T07:20:45;12.73;;;11.63;;
6386;SDS011;3226;42.162;24.756;2022-07-29T07:23:13;14.77;;;13.47;;
6386;SDS011;3226;42.162;24.756;2022-07-29T07:25:41;15.80;;;14.33;;
6386;SDS011;3226;42.162;24.756;2022-07-29T07:28:10;19.57;;;17.80;;
6386;SDS011;3226;42.162;24.756;2022-07-29T07:30:38;15.87;;;14.47;;
6386;SDS011;3226;42.162;24.756;2022-07-29T07:33:08;14.57;;;13.50;;
6386;SDS011;3226;42.162;24.756;2022-07-29T07:35:36;13.90;;;12.07;;
6386;SDS011;3226;42.162;24.756;2022-07-29T07:38:04;13.50;;;12.50;;
6386;SDS011;3226;42.162;24.756;2022-07-29T07:40:33;15.30;;;13.90;;
6386;SDS011;3226;42.162;24.756;2022-07-29T07:43:01;13.73;;;12.37;;
6386;SDS011;3226;42.162;24.756;2022-07-29T07:45:29;15.63;;;13.73;;
6386;SDS011;3226;42.162;24.756;2022-07-29T07:47:58;13.13;;;11.93;;
6386;SDS011;3226;42.162;24.756;2022-07-29T07:50:28;13.40;;;11.97;;
6386;SDS011;3226;42.162;24.756;2022-07-29T07:52:56;13.47;;;12.17;;
6386;SDS011;3226;42.162;24.756;2022-07-29T07:55:24;13.00;;;11.77;;
6386;SDS011;3226;42.162;24.756;2022-07-29T07:57:53;16.87;;;13.57;;
6386;SDS011;3226;42.162;24.756;2022-07-29T08:00:21;11.70;;;10.57;;
6386;SDS011;3226;42.162;24.756;2022-07-29T08:02:50;12.13;;;11.07;;
6386;SDS011;3226;42.162;24.756;2022-07-29T08:05:19;15.47;;;13.90;;
6386;SDS011;3226;42.162;24.756;2022-07-29T08:07:48;12.63;;;11.63;;
6386;SDS011;3226;42.162;24.756;2022-07-29T08:10:17;15.50;;;11.03;;
6386;SDS011;3226;42.162;24.756;2022-07-29T08:13:01;11.80;;;10.97;;
6386;SDS011;3226;42.162;24.756;2022-07-29T08:15:30;12.67;;;11.67;;
6386;SDS011;3226;42.162;24.756;2022-07-29T08:17:58;12.37;;;11.10;;
6386;SDS011;3226;42.162;24.756;2022-07-29T08:20:33;14.03;;;12.93;;
6386;SDS011;3226;42.162;24.756;2022-07-29T08:23:03;13.43;;;11.80;;
6386;SDS011;3226;42.162;24.756;2022-07-29T08:25:32;12.43;;;11.17;;
6386;SDS011;3226;42.162;24.756;2022-07-29T08:28:05;12.13;;;11.20;;
6386;SDS011;3226;42.162;24.756;2022-07-29T08:30:33;12.57;;;11.67;;
6386;SDS011;3226;42.162;24.756;2022-07-29T08:33:01;10.03;;;9.33;;
6386;SDS011;3226;42.162;24.756;2022-07-29T08:35:30;10.50;;;9.57;;
6386;SDS011;3226;42.162;24.756;2022-07-29T08:38:03;9.70;;;9.00;;
6386;SDS011;3226;42.162;24.756;2022-07-29T08:40:31;10.93;;;10.13;;
6386;SDS011;3226;42.162;24.756;2022-07-29T08:42:59;10.30;;;9.57;;
6386;SDS011;3226;42.162;24.756;2022-07-29T08:45:35;10.40;;;9.77;;
6386;SDS011;3226;42.162;24.756;2022-07-29T08:48:14;11.33;;;10.30;;
6386;SDS011;3226;42.162;24.756;2022-07-29T08:50:46;12.53;;;11.57;;
6386;SDS011;3226;42.162;24.756;2022-07-29T08:53:16;15.00;;;13.40;;
6386;SDS011;3226;42.162;24.756;2022-07-29T08:55:47;14.60;;;13.63;;
6386;SDS011;3226;42.162;24.756;2022-07-29T08:58:17;11.70;;;10.73;;
6386;SDS011;3226;42.162;24.756;2022-07-29T09:00:51;10.70;;;9.80;;
6386;SDS011;3226;42.162;24.756;2022-07-29T09:03:22;10.60;;;9.70;;
6386;SDS011;3226;42.162;24.756;2022-07-29T09:05:52;10.77;;;9.93;;
6386;SDS011;3226;42.162;24.756;2022-07-29T09:08:22;11.33;;;10.37;;
6386;SDS011;3226;42.162;24.756;2022-07-29T09:10:50;11.47;;;10.43;;
6386;SDS011;3226;42.162;24.756;2022-07-29T09:13:19;11.23;;;10.47;;
6386;SDS011;3226;42.162;24.756;2022-07-29T09:15:47;11.23;;;10.47;;
6386;SDS011;3226;42.162;24.756;2022-07-29T09:21:02;10.00;;;9.20;;
6386;SDS011;3226;42.162;24.756;2022-07-29T09:24:01;12.87;;;11.60;;
6386;SDS011;3226;42.162;24.756;2022-07-29T09:26:31;11.87;;;10.87;;
6386;SDS011;3226;42.162;24.756;2022-07-29T09:29:01;11.10;;;10.30;;
6386;SDS011;3226;42.162;24.756;2022-07-29T09:31:36;11.30;;;10.40;;
6386;SDS011;3226;42.162;24.756;2022-07-29T09:34:06;10.93;;;9.93;;
6386;SDS011;3226;42.162;24.756;2022-07-29T09:36:40;9.97;;;9.37;;
6386;SDS011;3226;42.162;24.756;2022-07-29T09:39:10;10.77;;;9.70;;
6386;SDS011;3226;42.162;24.756;2022-07-29T09:41:45;11.50;;;10.40;;
6386;SDS011;3226;42.162;24.756;2022-07-29T09:44:15;10.53;;;9.83;;
6386;SDS011;3226;42.162;24.756;2022-07-29T09:46:53;11.33;;;10.43;;
6386;SDS011;3226;42.162;24.756;2022-07-29T09:49:23;11.63;;;9.53;;
6386;SDS011;3226;42.162;24.756;2022-07-29T09:51:59;10.97;;;10.00;;
6386;SDS011;3226;42.162;24.756;2022-07-29T09:54:29;10.83;;;10.10;;
6386;SDS011;3226;42.162;24.756;2022-07-29T09:57:03;10.73;;;10.03;;
6386;SDS011;3226;42.162;24.756;2022-07-29T09:59:32;11.63;;;10.83;;
6386;SDS011;3226;42.162;24.756;2022-07-29T10:02:00;9.77;;;9.13;;
6386;SDS011;3226;42.162;24.756;2022-07-29T10:04:38;10.73;;;9.83;;
6386;SDS011;3226;42.162;24.756;2022-07-29T10:07:06;11.13;;;10.27;;
6386;SDS011;3226;42.162;24.756;2022-07-29T10:09:36;10.90;;;10.20;;
6386;SDS011;3226;42.162;24.756;2022-07-29T10:12:05;11.33;;;10.17;;
6386;SDS011;3226;42.162;24.756;2022-07-29T10:14:35;11.33;;;10.53;;
6386;SDS011;3226;42.162;24.756;2022-07-29T10:17:04;10.97;;;10.27;;
6386;SDS011;3226;42.162;24.756;2022-07-29T10:19:35;11.30;;;10.63;;
6386;SDS011;3226;42.162;24.756;2022-07-29T10:22:05;9.97;;;9.27;;
6386;SDS011;3226;42.162;24.756;2022-07-29T10:24:34;10.17;;;9.33;;
6386;SDS011;3226;42.162;24.756;2022-07-29T10:27:05;11.47;;;10.63;;
6386;SDS011;3226;42.162;24.756;2022-07-29T10:29:34;9.87;;;8.87;;
6386;SDS011;3226;42.162;24.756;2022-07-29T10:32:09;10.63;;;9.83;;
6386;SDS011;3226;42.162;24.756;2022-07-29T10:34:55;10.53;;;9.70;;
6386;SDS011;3226;42.162;24.756;2022-07-29T10:37:46;11.30;;;9.60;;
6386;SDS011;3226;42.162;24.756;2022-07-29T10:40:27;12.80;;;12.00;;
6386;SDS011;3226;42.162;24.756;2022-07-29T10:43:25;13.60;;;12.60;;
6386;SDS011;3226;42.162;24.756;2022-07-29T10:45:58;14.20;;;13.10;;
6386;SDS011;3226;42.162;24.756;2022-07-29T10:48:27;12.43;;;11.60;;
6386;SDS011;3226;42.162;24.756;2022-07-29T10:50:56;12.23;;;11.30;;
6386;SDS011;3226;42.162;24.756;2022-07-29T10:53:47;11.90;;;11.10;;
6386;SDS011;3226;42.162;24.756;2022-07-29T10:56:25;12.10;;;11.37;;
6386;SDS011;3226;42.162;24.756;2022-07-29T11:02:01;13.13;;;12.33;;
6386;SDS011;3226;42.162;24.756;2022-07-29T11:04:59;10.80;;;10.20;;
6386;SDS011;3226;42.162;24.756;2022-07-29T11:07:29;11.27;;;10.47;;
6386;SDS011;3226;42.162;24.756;2022-07-29T11:10:23;10.93;;;10.20;;
6386;SDS011;3226;42.162;24.756;2022-07-29T11:12:56;10.43;;;9.73;;
6386;SDS011;3226;42.162;24.756;2022-07-29T11:15:26;10.53;;;9.73;;
6386;SDS011;3226;42.162;24.756;2022-07-29T11:18:04;10.60;;;9.73;;
6386;SDS011;3226;42.162;24.756;2022-07-29T11:20:40;10.83;;;10.03;;
6386;SDS011;3226;42.162;24.756;2022-07-29T11:23:17;10.30;;;9.40;;
6386;SDS011;3226;42.162;24.756;2022-07-29T11:26:18;10.70;;;10.03;;
6386;SDS011;3226;42.162;24.756;2022-07-29T11:28:50;11.43;;;10.30;;
6386;SDS011;3226;42.162;24.756;2022-07-29T11:31:33;11.17;;;10.27;;
6386;SDS011;3226;42.162;24.756;2022-07-29T11:42:46;11.10;;;10.23;;
6386;SDS011;3226;42.162;24.756;2022-07-29T11:45:18;11.20;;;10.50;;
6386;SDS011;3226;42.162;24.756;2022-07-29T11:48:14;11.27;;;10.37;;
6386;SDS011;3226;42.162;24.756;2022-07-29T11:50:55;13.97;;;10.57;;
6386;SDS011;3226;42.162;24.756;2022-07-29T11:53:24;10.50;;;9.80;;
6386;SDS011;3226;42.162;24.756;2022-07-29T11:56:12;10.83;;;9.57;;
6386;SDS011;3226;42.162;24.756;2022-07-29T11:58:42;11.73;;;10.70;;
6386;SDS011;3226;42.162;24.756;2022-07-29T12:01:12;11.03;;;9.93;;
6386;SDS011;3226;42.162;24.756;2022-07-29T12:03:42;12.07;;;11.23;;
6386;SDS011;3226;42.162;24.756;2022-07-29T12:06:11;14.77;;;13.57;;
6386;SDS011;3226;42.162;24.756;2022-07-29T12:08:43;13.73;;;12.93;;
6386;SDS011;3226;42.162;24.756;2022-07-29T12:11:16;16.17;;;15.10;;
6386;SDS011;3226;42.162;24.756;2022-07-29T12:13:47;12.23;;;11.33;;
6386;SDS011;3226;42.162;24.756;2022-07-29T12:16:16;12.27;;;11.37;;
6386;SDS011;3226;42.162;24.756;2022-07-29T12:18:56;11.53;;;10.83;;
6386;SDS011;3226;42.162;24.756;2022-07-29T12:21:25;11.57;;;10.47;;
6386;SDS011;3226;42.162;24.756;2022-07-29T12:23:55;9.63;;;8.97;;
6386;SDS011;3226;42.162;24.756;2022-07-29T12:26:34;9.77;;;8.90;;
6386;SDS011;3226;42.162;24.756;2022-07-29T12:29:02;10.83;;;9.87;;
6386;SDS011;3226;42.162;24.756;2022-07-29T12:31:40;11.27;;;10.57;;
6386;SDS011;3226;42.162;24.756;2022-07-29T12:34:12;11.10;;;10.33;;
6386;SDS011;3226;42.162;24.756;2022-07-29T12:36:42;11.80;;;10.80;;
6386;SDS011;3226;42.162;24.756;2022-07-29T12:39:11;10.97;;;10.30;;
6386;SDS011;3226;42.162;24.756;2022-07-29T12:41:39;11.60;;;10.93;;
6386;SDS011;3226;42.162;24.756;2022-07-29T12:44:07;11.77;;;10.77;;
6386;SDS011;3226;42.162;24.756;2022-07-29T12:46:36;12.00;;;10.57;;
6386;SDS011;3226;42.162;24.756;2022-07-29T12:49:04;11.47;;;10.23;;
6386;SDS011;3226;42.162;24.756;2022-07-29T12:51:34;11.67;;;10.73;;
6386;SDS011;3226;42.162;24.756;2022-07-29T12:54:06;10.97;;;10.10;;
6386;SDS011;3226;42.162;24.756;2022-07-29T12:56:37;10.23;;;9.43;;
6386;SDS011;3226;42.162;24.756;2022-07-29T12:59:13;11.03;;;10.00;;
6386;SDS011;3226;42.162;24.756;2022-07-29T13:01:43;10.30;;;9.70;;
6386;SDS011;3226;42.162;24.756;2022-07-29T13:04:23;9.63;;;9.07;;
6386;SDS011;3226;42.162;24.756;2022-07-29T13:06:59;11.20;;;10.10;;
6386;SDS011;3226;42.162;24.756;2022-07-29T13:09:36;10.63;;;9.83;;
6386;SDS011;3226;42.162;24.756;2022-07-29T13:12:06;11.33;;;10.57;;
6386;SDS011;3226;42.162;24.756;2022-07-29T13:14:37;10.00;;;9.20;;
6386;SDS011;3226;42.162;24.756;2022-07-29T13:17:06;11.03;;;10.13;;
6386;SDS011;3226;42.162;24.756;2022-07-29T13:19:36;10.80;;;10.00;;
6386;SDS011;3226;42.162;24.756;2022-07-29T13:22:08;10.60;;;9.80;;
6386;SDS011;3226;42.162;24.756;2022-07-29T13:24:47;10.10;;;9.40;;
6386;SDS011;3226;42.162;24.756;2022-07-29T13:27:16;12.20;;;11.30;;
6386;SDS011;3226;42.162;24.756;2022-07-29T13:29:45;11.20;;;10.23;;
6386;SDS011;3226;42.162;24.756;2022-07-29T13:32:15;11.43;;;10.60;;
6386;SDS011;3226;42.162;24.756;2022-07-29T13:34:43;11.47;;;10.57;;
6386;SDS011;3226;42.162;24.756;2022-07-29T13:37:12;11.53;;;10.53;;
6386;SDS011;3226;42.162;24.756;2022-07-29T13:39:40;13.47;;;9.67;;
6386;SDS011;3226;42.162;24.756;2022-07-29T13:42:18;10.80;;;10.00;;
6386;SDS011;3226;42.162;24.756;2022-07-29T13:44:46;10.73;;;10.10;;
6386;SDS011;3226;42.162;24.756;2022-07-29T13:47:15;10.87;;;9.97;;
6386;SDS011;3226;42.162;24.756;2022-07-29T13:49:43;11.80;;;10.63;;
6386;SDS011;3226;42.162;24.756;2022-07-29T13:52:12;14.10;;;12.50;;
6386;SDS011;3226;42.162;24.756;2022-07-29T13:54:41;12.53;;;11.63;;
6386;SDS011;3226;42.162;24.756;2022-07-29T13:57:10;12.07;;;11.17;;
6386;SDS011;3226;42.162;24.756;2022-07-29T13:59:38;12.70;;;11.40;;
6386;SDS011;3226;42.162;24.756;2022-07-29T14:02:07;12.37;;;11.57;;
6386;SDS011;3226;42.162;24.756;2022-07-29T14:04:35;13.93;;;12.93;;
6386;SDS011;3226;42.162;24.756;2022-07-29T14:07:05;12.20;;;11.33;;
6386;SDS011;3226;42.162;24.756;2022-07-29T14:09:35;14.30;;;13.13;;
6386;SDS011;3226;42.162;24.756;2022-07-29T14:12:07;11.77;;;10.70;;
6386;SDS011;3226;42.162;24.756;2022-07-29T14:14:35;12.10;;;11.23;;
6386;SDS011;3226;42.162;24.756;2022-07-29T14:17:04;12.50;;;11.77;;
6386;SDS011;3226;42.162;24.756;2022-07-29T14:19:33;11.83;;;10.93;;
6386;SDS011;3226;42.162;24.756;2022-07-29T14:22:04;11.30;;;10.33;;
6386;SDS011;3226;42.162;24.756;2022-07-29T14:24:35;12.47;;;11.43;;
6386;SDS011;3226;42.162;24.756;2022-07-29T14:27:04;13.33;;;11.87;;
6386;SDS011;3226;42.162;24.756;2022-07-29T14:29:32;11.53;;;10.50;;
6386;SDS011;3226;42.162;24.756;2022-07-29T14:32:04;11.63;;;10.83;;
6386;SDS011;3226;42.162;24.756;2022-07-29T14:34:33;11.97;;;11.17;;
6386;SDS011;3226;42.162;24.756;2022-07-29T14:37:01;13.77;;;10.77;;
6386;SDS011;3226;42.162;24.756;2022-07-29T14:39:32;11.57;;;10.40;;
6386;SDS011;3226;42.162;24.756;2022-07-29T14:42:09;9.65;;;8.75;;
6386;SDS011;3226;42.162;24.756;2022-07-29T14:44:39;11.57;;;10.60;;
6386;SDS011;3226;42.162;24.756;2022-07-29T14:47:08;10.80;;;10.17;;
6386;SDS011;3226;42.162;24.756;2022-07-29T14:49:36;11.23;;;10.53;;
6386;SDS011;3226;42.162;24.756;2022-07-29T14:52:04;11.87;;;11.00;;
6386;SDS011;3226;42.162;24.756;2022-07-29T14:54:32;13.03;;;12.00;;
6386;SDS011;3226;42.162;24.756;2022-07-29T14:57:00;12.57;;;11.47;;
6386;SDS011;3226;42.162;24.756;2022-07-29T14:59:30;10.43;;;9.73;;
6386;SDS011;3226;42.162;24.756;2022-07-29T15:01:58;10.83;;;10.17;;
6386;SDS011;3226;42.162;24.756;2022-07-29T15:04:27;11.40;;;10.60;;
6386;SDS011;3226;42.162;24.756;2022-07-29T15:06:55;10.87;;;9.97;;
6386;SDS011;3226;42.162;24.756;2022-07-29T15:09:23;11.23;;;10.43;;
6386;SDS011;3226;42.162;24.756;2022-07-29T15:11:51;12.10;;;11.07;;
6386;SDS011;3226;42.162;24.756;2022-07-29T15:14:19;12.60;;;11.63;;
6386;SDS011;3226;42.162;24.756;2022-07-29T15:16:48;11.63;;;10.80;;